Time;durP1;ratioP1;P1;durP2;ratioP2;P2;SDS_P1;SDS_P2;PMS_P1;PMS_P2;Temp;Humidity;BMP_temperature;BMP_pressure;BME280_temperature;BME280_humidity;BME280_pressure;Samples;Min_cycle;Max_cycle;Signal;HPM_P1;HPM_P2
2022/10/26 00:01:29;;;;;;;1.23;1.02;;;;;;;9.74;84.27;100056.91;5095618;28;20041;-67
2022/10/26 00:03:57;;;;;;;0.98;0.98;;;;;;;9.64;84.23;100055.13;5095595;28;20060;-68
2022/10/26 00:06:28;;;;;;;1.70;1.45;;;;;;;9.56;83.78;100055.88;5095875;28;20085;-67
2022/10/26 00:08:58;;;;;;;7.70;1.17;;;;;;;9.49;84.32;100064.31;5095861;28;20052;-68
2022/10/26 00:11:27;;;;;;;1.63;1.52;;;;;;;9.39;83.60;100064.22;5095489;28;20135;-67
2022/10/26 00:13:55;;;;;;;0.95;0.88;;;;;;;9.40;84.24;100060.00;5095299;28;20036;-68
2022/10/26 00:16:25;;;;;;;0.47;0.47;;;;;;;9.47;84.08;100055.81;5095376;28;20090;-68
2022/10/26 00:18:54;;;;;;;0.82;0.82;;;;;;;9.43;83.80;100065.97;5095978;28;20044;-68
2022/10/26 00:21:23;;;;;;;3.10;2.17;;;;;;;9.42;84.77;100059.16;5095620;28;20032;-68
2022/10/26 00:23:52;;;;;;;1.38;1.27;;;;;;;9.46;84.56;100057.50;5095233;28;20312;-68
2022/10/26 00:26:22;;;;;;;0.50;0.50;;;;;;;9.52;84.52;100054.16;5095127;28;20138;-68
2022/10/26 00:28:53;;;;;;;0.95;0.93;;;;;;;9.40;84.70;100050.66;5095482;28;20056;-67
2022/10/26 00:31:22;;;;;;;1.60;1.10;;;;;;;9.40;84.15;100050.66;5095079;28;20109;-68
2022/10/26 00:33:53;;;;;;;0.93;0.77;;;;;;;9.43;84.36;100055.75;5093938;28;20032;-68
2022/10/26 00:36:22;;;;;;;1.42;1.33;;;;;;;9.45;84.83;100059.19;5094889;28;20143;-68
2022/10/26 00:38:51;;;;;;;3.42;1.95;;;;;;;9.51;84.68;100062.63;5094941;28;20036;-68
2022/10/26 00:41:24;;;;;;;2.85;2.45;;;;;;;9.48;84.51;100060.06;5095189;28;20066;-68
2022/10/26 00:43:53;;;;;;;0.68;0.60;;;;;;;9.27;83.86;100033.53;5095216;28;20050;-68
2022/10/26 00:46:25;;;;;;;2.08;1.23;;;;;;;9.37;84.83;100060.81;5095047;28;20040;-68
2022/10/26 00:48:58;;;;;;;0.40;0.40;;;;;;;9.36;84.71;100059.09;5095072;28;20409;-68
2022/10/26 00:51:31;;;;;;;0.32;0.32;;;;;;;9.40;84.83;100063.41;5094761;28;20131;-68
2022/10/26 00:54:03;;;;;;;1.13;1.02;;;;;;;9.49;85.02;100066.84;5095173;28;20125;-68
2022/10/26 00:56:34;;;;;;;0.68;0.68;;;;;;;9.53;84.40;100064.34;5094553;28;20086;-68
2022/10/26 00:59:07;;;;;;;0.85;0.85;;;;;;;9.49;84.18;100059.22;5094329;28;20059;-68
2022/10/26 01:01:39;;;;;;;0.82;0.80;;;;;;;9.42;84.92;100064.25;5094562;28;20101;-68
2022/10/26 01:04:08;;;;;;;0.85;0.85;;;;;;;9.40;84.49;100055.75;5095073;28;20052;-68
2022/10/26 01:06:38;;;;;;;1.05;0.95;;;;;;;9.39;84.57;100054.03;5094647;28;20044;-68
2022/10/26 01:09:07;;;;;;;0.68;0.68;;;;;;;9.40;84.79;100055.75;5093807;28;20040;-68
2022/10/26 01:11:37;;;;;;;0.60;0.60;;;;;;;9.42;84.31;100059.16;5094698;28;20040;-68
2022/10/26 01:14:10;;;;;;;0.50;0.50;;;;;;;9.43;84.22;100054.91;5094252;28;20048;-68
2022/10/26 01:16:52;;;;;;;1.27;1.08;;;;;;;9.45;84.12;100053.25;5095138;28;20085;-68
2022/10/26 01:19:50;;;;;;;0.80;0.80;;;;;;;9.43;84.48;100060.84;5094530;28;20044;-69
2022/10/26 01:22:23;;;;;;;0.40;0.40;;;;;;;9.46;84.71;100065.13;5079491;28;20513;-66
2022/10/26 01:25:12;;;;;;;1.27;0.90;;;;;;;9.37;84.26;100065.06;5094439;28;20424;-68
2022/10/26 01:27:45;;;;;;;1.35;0.82;;;;;;;9.26;83.82;100064.94;5094370;28;20561;-67
2022/10/26 01:30:25;;;;;;;0.50;0.50;;;;;;;9.14;83.67;100064.78;5094624;28;20101;-67
2022/10/26 01:33:09;;;;;;;0.45;0.45;;;;;;;9.02;83.79;100057.00;5094632;28;20085;-68
2022/10/26 01:35:43;;;;;;;1.98;1.70;;;;;;;8.98;83.81;100055.28;5094113;28;20079;-67
2022/10/26 01:38:22;;;;;;;2.47;1.25;;;;;;;8.95;83.89;100049.31;5093875;28;20101;-68
2022/10/26 01:40:59;;;;;;;0.80;0.80;;;;;;;9.00;83.82;100043.41;5094274;28;20048;-68
2022/10/26 01:43:33;;;;;;;0.70;0.70;;;;;;;9.09;84.10;100058.81;5093882;28;20044;-68
2022/10/26 01:46:05;;;;;;;0.38;0.38;;;;;;;9.16;84.52;100055.50;5093830;28;20075;-68
2022/10/26 01:48:36;;;;;;;0.60;0.60;;;;;;;9.19;83.99;100052.97;5094080;28;20094;-68
2022/10/26 01:51:08;;;;;;;1.00;0.90;;;;;;;9.17;83.50;100052.09;5093770;28;20040;-68
2022/10/26 01:53:44;;;;;;;0.40;0.40;;;;;;;9.19;83.91;100055.50;5093769;28;20040;-68
2022/10/26 01:56:18;;;;;;;0.60;0.60;;;;;;;9.21;84.02;100038.56;5093947;28;20474;-68
2022/10/26 01:59:15;;;;;;;0.60;0.60;;;;;;;9.24;84.28;100043.69;5093677;28;20079;-68
2022/10/26 02:02:22;;;;;;;0.65;0.65;;;;;;;9.19;84.02;100040.22;5093634;28;20048;-68
2022/10/26 02:05:10;;;;;;;0.47;0.47;;;;;;;9.17;83.82;100041.91;5063763;28;20040;-68
2022/10/26 02:07:46;;;;;;;0.45;0.45;;;;;;;9.18;84.35;100047.88;5093992;28;20048;-68
2022/10/26 02:10:27;;;;;;;0.40;0.40;;;;;;;9.11;83.64;100039.31;5093563;28;20044;-67
2022/10/26 02:13:08;;;;;;;0.40;0.40;;;;;;;8.90;82.80;100040.78;5093611;28;20060;-67
2022/10/26 02:15:47;;;;;;;0.52;0.50;;;;;;;8.79;83.41;100048.25;5093514;28;20127;-67
2022/10/26 02:18:27;;;;;;;1.40;1.30;;;;;;;8.87;83.56;100044.13;5093546;28;20071;-67
2022/10/26 02:21:03;;;;;;;0.70;0.70;;;;;;;8.93;82.99;100046.72;5095064;28;20040;-67
2022/10/26 02:23:36;;;;;;;0.98;0.95;;;;;;;8.94;83.37;100045.06;5097577;28;20048;-68
2022/10/26 02:26:07;;;;;;;1.35;1.27;;;;;;;8.91;83.46;100038.22;5097855;28;20131;-67
2022/10/26 02:28:45;;;;;;;0.40;0.40;;;;;;;8.88;83.56;100038.19;5097833;28;20043;-67
2022/10/26 02:31:16;;;;;;;0.60;0.60;;;;;;;8.79;83.46;100017.72;5097732;28;20068;-67
2022/10/26 02:33:49;;;;;;;0.50;0.50;;;;;;;8.87;83.59;100039.03;5097420;28;20055;-67
2022/10/26 02:36:24;;;;;;;6.85;2.05;;;;;;;8.83;83.91;100034.72;5097767;28;20131;-67
2022/10/26 02:38:56;;;;;;;0.63;0.63;;;;;;;8.81;84.11;100046.59;5097320;28;20044;-67
2022/10/26 02:41:28;;;;;;;0.52;0.52;;;;;;;8.80;83.72;100049.13;5097207;28;20078;-68
2022/10/26 02:44:03;;;;;;;0.50;0.50;;;;;;;8.74;83.33;100049.91;5097221;28;20052;-67
2022/10/26 02:46:32;;;;;;;0.70;0.70;;;;;;;8.66;83.25;100051.50;5097139;28;20048;-67
2022/10/26 02:49:01;;;;;;;39.38;1.85;;;;;;;8.62;83.41;100059.91;5097420;28;20043;-67
2022/10/26 02:51:39;;;;;;;1.08;0.95;;;;;;;8.61;83.57;100058.22;5097247;28;20119;-67
2022/10/26 02:54:17;;;;;;;0.60;0.60;;;;;;;8.61;83.23;100051.41;5096999;28;20081;-67
2022/10/26 02:56:51;;;;;;;0.85;0.77;;;;;;;8.65;83.42;100047.25;5096887;28;20044;-67
2022/10/26 02:59:25;;;;;;;0.63;0.63;;;;;;;8.69;83.51;100046.44;5095658;28;20079;-67
2022/10/26 03:01:54;;;;;;;0.63;0.63;;;;;;;8.73;83.48;100045.66;5096878;28;20044;-67
2022/10/26 03:04:30;;;;;;;1.15;1.05;;;;;;;8.71;84.02;100044.75;5097022;28;20166;-67
2022/10/26 03:07:00;;;;;;;2.40;1.48;;;;;;;8.72;83.77;100049.03;5097098;28;20140;-67
2022/10/26 03:09:29;;;;;;;1.08;1.00;;;;;;;8.72;84.13;100049.03;5096742;28;20044;-67
2022/10/26 03:11:58;;;;;;;1.33;1.23;;;;;;;8.73;83.51;100048.22;5096655;28;20070;-68
2022/10/26 03:14:26;;;;;;;2.22;1.00;;;;;;;8.69;83.98;100046.44;5096526;28;20041;-67
2022/10/26 03:16:55;;;;;;;1.05;1.05;;;;;;;8.68;84.22;100048.16;5096422;28;20040;-68
2022/10/26 03:19:24;;;;;;;0.88;0.88;;;;;;;8.71;83.64;100049.84;5096514;28;20044;-68
2022/10/26 03:21:53;;;;;;;0.75;0.75;;;;;;;8.72;83.80;100051.56;5096484;28;20449;-67
2022/10/26 03:24:23;;;;;;;2.72;0.70;;;;;;;8.71;84.34;100050.72;5096330;28;20093;-67
2022/10/26 03:26:52;;;;;;;0.45;0.45;;;;;;;8.71;84.48;100049.84;5096703;28;20044;-67
2022/10/26 03:29:23;;;;;;;0.40;0.40;;;;;;;8.63;83.82;100056.56;5096636;28;20044;-67
2022/10/26 03:31:54;;;;;;;0.47;0.47;;;;;;;8.54;83.79;100046.25;5096385;28;20131;-67
2022/10/26 03:34:22;;;;;;;0.82;0.82;;;;;;;8.50;83.52;100050.44;5096183;28;20051;-67
2022/10/26 03:36:51;;;;;;;0.40;0.40;;;;;;;8.44;83.82;100049.50;5096317;28;20051;-67
2022/10/26 03:39:19;;;;;;;0.30;0.30;;;;;;;8.36;83.95;100057.03;5096041;28;20093;-68
2022/10/26 03:41:49;;;;;;;0.40;0.40;;;;;;;8.26;83.67;100054.28;5096341;28;20078;-67
2022/10/26 03:44:18;;;;;;;0.47;0.47;;;;;;;8.26;84.47;100056.81;5095998;28;20131;-67
2022/10/26 03:46:47;;;;;;;0.50;0.50;;;;;;;8.22;84.28;100060.16;5095829;28;20048;-68
2022/10/26 03:49:15;;;;;;;0.43;0.43;;;;;;;8.18;84.80;100060.97;5095914;28;20036;-67
2022/10/26 03:51:44;;;;;;;0.55;0.52;;;;;;;8.26;84.83;100064.47;5095879;28;20547;-67
2022/10/26 03:54:12;;;;;;;0.68;0.68;;;;;;;8.22;84.59;100067.78;5096149;28;20083;-68
2022/10/26 03:56:41;;;;;;;0.50;0.50;;;;;;;8.21;85.08;100073.69;5095667;28;20047;-68
2022/10/26 03:59:11;;;;;;;0.73;0.73;;;;;;;8.28;84.33;100073.03;5095580;28;20056;-68
2022/10/26 04:01:40;;;;;;;0.40;0.40;;;;;;;8.34;85.29;100078.19;5096022;28;20044;-67
2022/10/26 04:04:08;;;;;;;0.65;0.65;;;;;;;8.32;84.73;100075.63;5095955;28;20044;-67
2022/10/26 04:06:37;;;;;;;1.27;1.17;;;;;;;8.22;85.34;100072.88;5095490;28;20048;-67
2022/10/26 04:09:07;;;;;;;1.08;1.00;;;;;;;8.16;85.22;100077.88;5095472;28;20120;-67
2022/10/26 04:11:35;;;;;;;;;;;;;;;8.21;84.99;100071.16;5096201;28;20382;-68
2022/10/26 04:14:04;;;;;;;0.73;0.50;;;;;;;8.32;86.35;100069.69;5095705;28;19924;-68
2022/10/26 04:16:34;;;;;;;1.23;1.15;;;;;;;8.25;85.50;100070.41;5095534;28;20032;-67
2022/10/26 04:19:02;;;;;;;0.60;0.60;;;;;;;8.26;85.98;100059.38;5095406;28;20048;-67
2022/10/26 04:21:32;;;;;;;0.80;0.80;;;;;;;8.34;86.55;100062.94;5095611;28;20044;-67
2022/10/26 04:24:00;;;;;;;0.60;0.60;;;;;;;8.34;85.94;100057.84;5095264;28;20094;-67
2022/10/26 04:26:29;;;;;;;0.70;0.70;;;;;;;8.35;85.88;100057.03;5095703;28;20397;-67
2022/10/26 04:28:58;;;;;;;0.55;0.45;;;;;;;8.38;86.08;100064.66;5095114;28;20036;-67
2022/10/26 04:31:27;;;;;;;0.68;0.68;;;;;;;8.35;85.46;100065.47;5093867;28;20054;-67
2022/10/26 04:33:57;;;;;;;1.10;1.02;;;;;;;8.28;86.07;100067.94;5095357;28;20048;-67
2022/10/26 04:36:25;;;;;;;0.80;0.80;;;;;;;8.33;86.16;100056.13;5094880;28;20075;-68
2022/10/26 04:38:54;;;;;;;0.93;0.88;;;;;;;8.43;86.31;100056.28;5094964;28;20048;-67
2022/10/26 04:41:23;;;;;;;0.52;0.52;;;;;;;8.42;85.77;100056.28;5095237;28;20060;-68
2022/10/26 04:43:51;;;;;;;0.60;0.60;;;;;;;8.38;85.18;100057.91;5094224;28;20044;-67
2022/10/26 04:46:20;;;;;;;0.68;0.68;;;;;;;8.29;85.54;100054.38;5094748;28;20050;-67
2022/10/26 04:48:48;;;;;;;6.60;2.95;;;;;;;8.33;85.16;100051.03;5094781;28;20041;-67
2022/10/26 04:51:19;;;;;;;0.77;0.77;;;;;;;8.36;85.41;100044.31;5095037;28;20073;-67
2022/10/26 04:53:47;;;;;;;1.10;0.82;;;;;;;8.37;85.65;100056.22;5094961;28;20292;-67
2022/10/26 04:56:16;;;;;;;0.75;0.68;;;;;;;8.40;84.84;100047.72;5094448;28;20043;-67
2022/10/26 04:58:44;;;;;;;0.55;0.55;;;;;;;8.32;84.96;100057.81;5093331;28;20047;-67
2022/10/26 05:01:13;;;;;;;2.28;1.80;;;;;;;8.29;85.33;100059.47;5094514;28;20043;-67
2022/10/26 05:03:42;;;;;;;1.48;1.38;;;;;;;8.23;84.65;100054.25;5094535;28;20089;-67
2022/10/26 05:06:10;;;;;;;5.05;2.47;;;;;;;8.18;85.42;100056.75;5094950;28;20036;-67
2022/10/26 05:08:40;;;;;;;0.65;0.65;;;;;;;8.16;85.51;100060.09;5094319;28;20505;-67
2022/10/26 05:11:09;;;;;;;0.90;0.85;;;;;;;8.09;84.63;100059.97;5094366;28;20044;-67
2022/10/26 05:13:37;;;;;;;0.40;0.40;;;;;;;8.00;85.34;100057.31;5094617;28;20063;-67
2022/10/26 05:16:07;;;;;;;0.97;0.97;;;;;;;7.94;85.23;100052.13;5095119;28;20036;-67
2022/10/26 05:18:35;;;;;;;0.80;0.80;;;;;;;7.91;84.87;100059.72;5094174;28;20040;-67
2022/10/26 05:21:04;;;;;;;2.33;1.55;;;;;;;7.94;85.82;100057.19;5094103;28;20048;-67
2022/10/26 05:23:33;;;;;;;2.80;1.55;;;;;;;8.00;85.47;100061.53;5094184;28;20134;-68
2022/10/26 05:26:03;;;;;;;0.80;0.65;;;;;;;8.05;85.68;100060.78;5094657;28;20497;-67
2022/10/26 05:28:32;;;;;;;1.23;1.13;;;;;;;8.08;85.62;100065.06;5094102;28;20044;-67
2022/10/26 05:31:00;;;;;;;3.58;2.45;;;;;;;8.08;85.63;100065.91;5094496;28;20441;-67
2022/10/26 05:33:29;;;;;;;4.70;2.47;;;;;;;8.06;85.37;100072.63;5093977;28;20074;-66
2022/10/26 05:35:57;;;;;;;4.55;2.58;;;;;;;7.98;85.16;100074.22;5094215;28;20036;-67
2022/10/26 05:38:26;;;;;;;5.03;4.53;;;;;;;7.95;85.46;100074.16;5093758;28;20127;-67
2022/10/26 05:40:55;;;;;;;5.47;4.55;;;;;;;7.96;85.63;100080.13;5093811;28;20051;-67
2022/10/26 05:43:26;;;;;;;6.03;5.47;;;;;;;8.01;86.43;100069.16;5093841;28;20052;-66
2022/10/26 05:45:54;;;;;;;2.90;2.55;;;;;;;8.00;85.54;100066.63;5094124;28;20541;-67
2022/10/26 05:48:23;;;;;;;4.68;1.80;;;;;;;7.97;85.51;100080.13;5093746;28;20054;-67
2022/10/26 05:50:52;;;;;;;3.58;1.73;;;;;;;7.99;85.20;100065.75;5093751;28;20053;-67
2022/10/26 05:53:20;;;;;;;2.28;1.70;;;;;;;8.07;85.23;100076.03;5093689;28;20094;-67
2022/10/26 05:55:49;;;;;;;5.13;2.67;;;;;;;8.31;85.85;100073.91;5093370;28;20036;-67
2022/10/26 05:58:18;;;;;;;1.20;1.00;;;;;;;8.45;84.91;100071.53;5093282;28;20044;-67
2022/10/26 06:01:00;;;;;;;0.60;0.60;;;;;;;8.50;85.70;100069.91;5093587;28;20083;-67
2022/10/26 06:03:41;;;;;;;1.27;1.17;;;;;;;8.66;85.39;100074.41;5093914;28;20431;-68
2022/10/26 06:06:13;;;;;;;2.30;2.03;;;;;;;8.78;85.70;100077.09;5093602;28;20044;-66
2022/10/26 06:08:43;;;;;;;2.03;1.88;;;;;;;8.90;85.21;100077.22;5093918;28;20143;-67
2022/10/26 06:11:12;;;;;;;0.98;0.93;;;;;;;9.01;84.72;100080.78;5093786;28;20056;-67
2022/10/26 06:13:41;;;;;;;1.52;0.98;;;;;;;9.06;85.52;100081.69;5093804;28;20130;-67
2022/10/26 06:16:28;;;;;;;1.45;0.93;;;;;;;9.11;85.08;100082.59;5093522;28;20040;-67
2022/10/26 06:19:10;;;;;;;1.20;1.08;;;;;;;9.14;85.78;100087.72;5093342;28;20044;-67
2022/10/26 06:21:50;;;;;;;1.55;1.45;;;;;;;9.27;85.56;100089.56;5093499;28;20093;-67
2022/10/26 06:24:25;;;;;;;1.30;1.20;;;;;;;9.39;85.56;100099.91;5093405;28;20048;-67
2022/10/26 06:27:00;;;;;;;4.18;1.65;;;;;;;9.50;85.13;100101.69;5093434;28;20101;-67
2022/10/26 06:29:42;;;;;;;1.88;1.08;;;;;;;9.62;85.62;100101.81;5093390;28;20051;-67
2022/10/26 06:32:13;;;;;;;1.70;1.58;;;;;;;9.77;85.99;100099.41;5092984;28;20041;-68
2022/10/26 06:34:47;;;;;;;1.42;1.33;;;;;;;9.91;85.10;100100.41;5090781;28;20139;-68
2022/10/26 06:37:17;;;;;;;2.65;2.45;;;;;;;9.98;84.81;100102.16;5093077;28;20080;-67
2022/10/26 06:39:48;;;;;;;4.75;2.42;;;;;;;10.06;85.38;100106.47;5093517;28;20040;-68
2022/10/26 06:42:22;;;;;;;1.52;1.42;;;;;;;10.19;85.14;100102.34;5093581;28;20501;-67
2022/10/26 06:44:51;;;;;;;2.08;1.83;;;;;;;10.37;85.27;100112.69;5090733;28;20036;-68
2022/10/26 06:47:30;;;;;;;1.92;1.20;;;;;;;10.45;85.23;100105.94;5072879;28;20075;-68
2022/10/26 06:50:13;;;;;;;1.75;0.95;;;;;;;10.53;84.85;100113.66;5073352;28;20119;-68
2022/10/26 06:52:46;;;;;;;2.45;0.77;;;;;;;10.68;85.13;100112.03;5073270;28;20060;-68
2022/10/26 06:55:16;;;;;;;0.80;0.65;;;;;;;10.70;84.77;100107.78;5072971;28;20060;-69
2022/10/26 06:57:45;;;;;;;1.25;1.15;;;;;;;10.61;84.84;100072.00;5073109;28;20151;-69
2022/10/26 07:00:18;;;;;;;;;;;;;;;10.95;84.38;100113.00;5073090;28;20087;-69
2022/10/26 07:02:49;;;;;;;1.55;1.35;;;;;;;11.07;84.39;100118.19;5074195;28;20007;-69
2022/10/26 07:05:18;;;;;;;3.00;2.67;;;;;;;11.07;84.08;100119.03;5092862;28;20040;-69
2022/10/26 07:07:47;;;;;;;1.23;1.15;;;;;;;11.14;83.99;100119.91;5077995;28;20440;-69
2022/10/26 07:10:17;;;;;;;3.95;1.90;;;;;;;11.23;83.76;100120.81;5096651;28;20494;-69
2022/10/26 07:12:45;;;;;;;0.88;0.88;;;;;;;11.29;83.63;100125.94;5096609;28;20043;-69
2022/10/26 07:15:14;;;;;;;1.05;0.85;;;;;;;11.35;83.66;100125.09;5096839;28;20044;-69
2022/10/26 07:17:44;;;;;;;0.68;0.68;;;;;;;11.47;83.56;100124.31;5096713;28;20433;-69
2022/10/26 07:20:14;;;;;;;1.23;1.15;;;;;;;11.64;83.67;100117.50;5096745;28;20102;-69
2022/10/26 07:22:43;;;;;;;1.33;0.73;;;;;;;11.76;83.56;100128.63;5096463;28;20075;-69
2022/10/26 07:25:12;;;;;;;0.70;0.70;;;;;;;11.82;83.64;100118.44;5096368;28;20093;-69
2022/10/26 07:27:41;;;;;;;;;;;;;;;11.83;83.27;100125.25;5095928;28;20123;-70
2022/10/26 07:30:10;;;;;;;0.90;0.85;;;;;;;12.01;83.42;100125.28;5094869;28;19927;-69
2022/10/26 07:32:39;;;;;;;2.03;1.10;;;;;;;12.01;83.15;100130.41;5096432;28;20044;-68
2022/10/26 07:35:08;;;;;;;1.77;1.65;;;;;;;12.07;83.05;100130.38;5096100;28;20040;-69
2022/10/26 07:37:38;;;;;;;0.95;0.82;;;;;;;12.27;83.01;100135.50;5096285;28;20497;-69
2022/10/26 07:40:08;;;;;;;0.73;0.63;;;;;;;12.30;83.20;100122.72;5096127;28;20051;-69
2022/10/26 07:42:37;;;;;;;0.63;0.63;;;;;;;12.40;82.64;100136.34;5096038;28;20047;-68
2022/10/26 07:45:06;;;;;;;4.07;1.70;;;;;;;12.45;82.79;100137.22;5095925;28;20044;-69
2022/10/26 07:47:35;;;;;;;0.68;0.68;;;;;;;12.62;82.72;100130.38;5095239;28;20102;-69
2022/10/26 07:50:04;;;;;;;1.65;1.27;;;;;;;12.73;82.35;100138.88;5093845;28;20047;-69
2022/10/26 07:52:34;;;;;;;0.60;0.60;;;;;;;12.86;82.41;100134.56;5096106;28;20151;-69
2022/10/26 07:55:05;;;;;;;0.80;0.80;;;;;;;12.95;82.05;100139.66;5091094;28;20036;-69
2022/10/26 07:57:34;;;;;;;0.82;0.80;;;;;;;12.93;81.93;100126.88;5075531;28;20054;-69
2022/10/26 08:00:04;;;;;;;0.50;0.50;;;;;;;12.97;81.58;100128.56;5075005;28;20057;-69
2022/10/26 08:02:34;;;;;;;0.40;0.40;;;;;;;13.06;81.21;100128.53;5075516;28;20044;-69
2022/10/26 08:05:02;;;;;;;0.60;0.60;;;;;;;13.08;81.15;100133.66;5075322;28;20508;-69
2022/10/26 08:07:31;;;;;;;1.60;1.25;;;;;;;13.13;80.61;100130.22;5075346;28;20281;-69
2022/10/26 08:09:59;;;;;;;4.05;2.53;;;;;;;13.24;80.93;100131.06;5081807;28;20044;-68
2022/10/26 08:12:30;;;;;;;0.32;0.32;;;;;;;13.37;80.46;100135.25;5090427;28;20036;-69
2022/10/26 08:14:59;;;;;;;1.02;1.00;;;;;;;13.41;80.62;100125.84;5093944;28;20390;-69
2022/10/26 08:17:28;;;;;;;0.70;0.70;;;;;;;13.48;80.37;100136.91;5095267;28;20044;-69
2022/10/26 08:19:57;;;;;;;0.85;0.77;;;;;;;13.56;80.32;100130.00;5095089;28;20119;-69
2022/10/26 08:22:26;;;;;;;0.60;0.60;;;;;;;13.61;80.25;100138.53;5095546;28;20044;-69
2022/10/26 08:24:54;;;;;;;0.70;0.70;;;;;;;13.61;79.54;100128.28;5096358;28;20043;-69
2022/10/26 08:27:23;;;;;;;0.60;0.60;;;;;;;13.62;79.71;100136.00;5086597;28;20551;-69
2022/10/26 08:29:53;;;;;;;1.55;1.20;;;;;;;13.68;79.72;100135.94;5083352;28;20052;-69
2022/10/26 08:32:22;;;;;;;3.22;0.90;;;;;;;13.73;79.87;100129.06;5086096;28;20048;-69
2022/10/26 08:34:50;;;;;;;0.45;0.45;;;;;;;13.86;79.51;100129.84;5095389;28;20485;-69
2022/10/26 08:37:21;;;;;;;0.50;0.50;;;;;;;14.00;79.34;100138.28;5093880;28;20040;-69
2022/10/26 08:39:51;;;;;;;1.00;0.90;;;;;;;14.10;78.98;100145.94;5094826;28;20036;-69
2022/10/26 08:42:30;;;;;;;0.60;0.60;;;;;;;14.23;79.07;100136.38;5095415;28;20047;-69
2022/10/26 08:45:05;;;;;;;2.20;1.65;;;;;;;14.38;78.43;100141.44;5093363;28;20036;-70
2022/10/26 08:47:42;;;;;;;0.63;0.63;;;;;;;14.39;78.24;100138.03;5094782;28;20135;-70
2022/10/26 08:50:16;;;;;;;1.48;1.27;;;;;;;14.43;77.92;100139.69;5093607;28;20044;-69
2022/10/26 08:52:52;;;;;;;0.82;0.82;;;;;;;14.46;78.39;100129.41;5092967;28;20081;-69
2022/10/26 08:55:26;;;;;;;0.50;0.50;;;;;;;14.59;78.55;100135.25;5089666;28;20515;-70
2022/10/26 08:57:56;;;;;;;0.55;0.55;;;;;;;14.61;77.99;100141.25;5094336;28;20036;-70
2022/10/26 09:00:30;;;;;;;0.60;0.57;;;;;;;14.57;77.31;100136.97;5094565;28;20044;-70
2022/10/26 09:02:59;;;;;;;0.88;0.82;;;;;;;14.53;77.73;100141.31;5094492;28;20048;-69
2022/10/26 09:05:33;;;;;;;1.55;0.98;;;;;;;14.55;77.44;100143.84;5094275;28;20097;-70
2022/10/26 09:08:12;;;;;;;0.80;0.73;;;;;;;14.60;77.27;100136.97;5094700;28;20147;-69
2022/10/26 09:10:51;;;;;;;0.65;0.65;;;;;;;14.62;77.08;100130.09;5088707;28;20559;-69
2022/10/26 09:13:28;;;;;;;4.95;2.60;;;;;;;14.64;76.97;100129.19;5094413;28;20040;-70
2022/10/26 09:16:06;;;;;;;1.23;1.05;;;;;;;14.68;77.36;100130.03;5094250;28;20136;-69
2022/10/26 09:18:47;;;;;;;0.50;0.47;;;;;;;14.70;77.23;100134.28;5081214;28;20103;-69
2022/10/26 09:21:29;;;;;;;0.50;0.50;;;;;;;14.73;77.22;100134.25;5094159;28;20099;-69
2022/10/26 09:24:06;;;;;;;1.02;0.93;;;;;;;14.76;77.00;100134.22;5089804;28;20098;-70
2022/10/26 09:26:39;;;;;;;1.42;0.90;;;;;;;14.77;77.46;100135.94;5073843;28;20044;-69
2022/10/26 09:29:13;;;;;;;1.65;1.17;;;;;;;14.84;76.97;100135.84;5073867;28;20041;-69
2022/10/26 09:31:49;;;;;;;0.65;0.65;;;;;;;14.88;77.14;100132.38;5085587;28;20076;-69
2022/10/26 09:34:25;;;;;;;0.35;0.35;;;;;;;14.89;76.80;100134.09;5094259;28;20040;-69
2022/10/26 09:36:55;;;;;;;0.95;0.95;;;;;;;14.85;76.76;100135.00;5090539;28;20048;-69
2022/10/26 09:39:33;;;;;;;0.70;0.70;;;;;;;14.85;76.66;100138.44;5076519;28;20086;-70
2022/10/26 09:42:12;;;;;;;1.05;0.65;;;;;;;14.94;76.97;100142.59;5074041;28;20041;-69
2022/10/26 09:44:45;;;;;;;0.90;0.82;;;;;;;15.01;76.95;100149.38;5073992;28;20105;-69
2022/10/26 09:47:28;;;;;;;2.28;1.02;;;;;;;15.02;77.13;100143.38;5073945;28;20387;-69
2022/10/26 09:50:02;;;;;;;0.50;0.50;;;;;;;15.02;77.52;100140.81;5073595;28;20052;-69
2022/10/26 09:52:31;;;;;;;0.75;0.75;;;;;;;15.03;76.83;100145.06;5073867;28;20080;-69
2022/10/26 09:54:59;;;;;;;0.60;0.60;;;;;;;15.06;76.73;100142.47;5081159;28;20040;-69
2022/10/26 09:57:28;;;;;;;0.82;0.82;;;;;;;15.13;76.47;100144.09;5081724;28;20100;-70
2022/10/26 09:59:57;;;;;;;0.65;0.65;;;;;;;15.26;76.47;100135.38;5081678;28;20098;-69
2022/10/26 10:02:39;;;;;;;0.80;0.80;;;;;;;15.38;76.04;100140.34;5073268;28;20086;-69
2022/10/26 10:05:27;;;;;;;0.75;0.75;;;;;;;15.50;76.08;100147.94;5073453;28;20041;-69
2022/10/26 10:08:20;;;;;;;0.60;0.60;;;;;;;15.59;75.51;100154.69;5073485;28;20036;-69
2022/10/26 10:11:02;;;;;;;4.82;1.10;;;;;;;15.64;75.03;100151.19;5073335;28;20135;-69
2022/10/26 10:13:33;;;;;;;2.42;1.08;;;;;;;15.79;75.26;100145.81;5073689;28;20169;-69
2022/10/26 10:16:11;;;;;;;3.83;1.65;;;;;;;15.97;75.03;100142.13;5073308;28;20048;-69
2022/10/26 10:18:42;;;;;;;0.77;0.77;;;;;;;16.07;74.55;100144.56;5073537;28;20055;-69
2022/10/26 10:21:13;;;;;;;1.10;0.98;;;;;;;16.15;73.85;100141.00;5072395;28;20052;-69
2022/10/26 10:23:50;;;;;;;0.30;0.30;;;;;;;16.27;73.61;100143.38;5073545;28;20099;-69
2022/10/26 10:26:20;;;;;;;0.40;0.40;;;;;;;16.37;73.19;100132.03;5073143;28;20102;-69
2022/10/26 10:28:58;;;;;;;4.38;0.93;;;;;;;16.58;73.31;100136.88;5073100;28;20490;-70
2022/10/26 10:31:31;;;;;;;1.50;1.13;;;;;;;16.79;73.01;100131.31;5073059;28;20056;-70
2022/10/26 10:34:16;;;;;;;0.70;0.70;;;;;;;16.95;72.50;100132.72;5073166;28;20494;-70
2022/10/26 10:36:46;;;;;;;0.85;0.73;;;;;;;17.04;71.99;100127.38;5073070;28;20049;-69
2022/10/26 10:39:32;;;;;;;1.30;1.15;;;;;;;17.23;71.58;100123.53;5073312;28;20051;-69
2022/10/26 10:42:01;;;;;;;1.88;1.00;;;;;;;17.30;70.80;100116.50;5073304;28;20388;-70
2022/10/26 10:44:33;;;;;;;0.45;0.45;;;;;;;17.37;70.45;100121.50;5076984;28;20037;-69
2022/10/26 10:47:03;;;;;;;1.35;0.93;;;;;;;17.48;70.45;100123.03;5076305;28;20037;-70
2022/10/26 10:49:34;;;;;;;0.82;0.80;;;;;;;17.62;70.19;100121.03;5087224;28;20496;-70
2022/10/26 10:52:03;;;;;;;0.80;0.80;;;;;;;17.92;70.11;100115.16;5094374;28;20055;-70
2022/10/26 10:54:34;;;;;;;1.87;0.70;;;;;;;17.99;69.49;100116.72;5076651;28;20037;-70
2022/10/26 10:57:18;;;;;;;9.57;0.90;;;;;;;17.85;69.48;100118.78;5076914;28;20162;-69
2022/10/26 10:59:59;;;;;;;0.70;0.70;;;;;;;17.70;69.36;100119.13;5076297;28;20567;-69
2022/10/26 11:02:56;;;;;;;1.20;0.88;;;;;;;17.63;69.16;100118.41;5075590;28;20052;-69
2022/10/26 11:05:41;;;;;;;1.35;1.25;;;;;;;17.61;68.94;100116.75;5076507;28;20041;-69
2022/10/26 11:08:14;;;;;;;1.05;0.95;;;;;;;17.61;69.17;100119.34;5084500;28;20549;-69
2022/10/26 11:10:50;;;;;;;0.85;0.85;;;;;;;17.63;69.57;100113.25;5087070;28;20468;-69
2022/10/26 11:13:24;;;;;;;0.95;0.93;;;;;;;17.66;69.78;100107.19;5076576;28;20060;-69
2022/10/26 11:16:03;;;;;;;0.63;0.63;;;;;;;17.83;69.57;100116.22;5076773;28;20074;-69
2022/10/26 11:18:37;;;;;;;1.67;0.90;;;;;;;17.93;69.91;100114.25;5076318;28;20083;-69
2022/10/26 11:21:17;;;;;;;0.60;0.60;;;;;;;17.90;69.52;100111.78;5076417;28;20090;-70
2022/10/26 11:23:50;;;;;;;0.80;0.80;;;;;;;17.85;69.40;100113.63;5076170;28;20131;-69
2022/10/26 11:26:25;;;;;;;0.85;0.85;;;;;;;17.88;69.69;100108.34;5076539;28;20460;-69
2022/10/26 11:28:59;;;;;;;0.93;0.80;;;;;;;18.11;69.73;100105.25;5076453;28;20055;-69
2022/10/26 11:31:33;;;;;;;1.20;1.10;;;;;;;18.05;69.46;100113.97;5076442;28;20053;-69
2022/10/26 11:34:17;;;;;;;2.15;1.27;;;;;;;18.04;69.83;100112.28;5076293;28;20111;-70
2022/10/26 11:36:56;;;;;;;0.90;0.90;;;;;;;18.04;70.19;100107.94;5076220;28;20169;-69
2022/10/26 11:39:35;;;;;;;1.20;1.02;;;;;;;17.94;70.49;100105.66;5077724;28;20044;-70
2022/10/26 11:42:12;;;;;;;1.23;1.10;;;;;;;17.89;70.73;100120.41;5075839;28;20131;-69
2022/10/26 11:44:44;;;;;;;0.68;0.68;;;;;;;17.82;70.97;100116.25;5075940;28;20048;-69
2022/10/26 11:47:23;;;;;;;;;;;;;;;17.74;71.30;100118.16;5079301;28;20045;-69
2022/10/26 11:49:59;;;;;;;1.13;1.08;;;;;;;17.70;71.81;100119.13;5094088;28;19920;-69
2022/10/26 11:52:38;;;;;;;2.05;1.60;;;;;;;17.68;72.36;100115.72;5081263;28;20135;-69
2022/10/26 11:55:11;;;;;;;5.78;1.10;;;;;;;17.59;72.57;100121.94;5082833;28;20492;-69
2022/10/26 11:57:41;;;;;;;1.20;0.77;;;;;;;17.53;73.25;100121.22;5087579;28;20546;-69